Time;durP1;ratioP1;P1;durP2;ratioP2;P2;SDS_P1;SDS_P2;PMS_P1;PMS_P2;Temp;Humidity;BMP_temperature;BMP_pressure;BME280_temperature;BME280_humidity;BME280_pressure;Samples;Min_cycle;Max_cycle;Signal;HPM_P1;HPM_P2
2024/03/19 00:04:58;;;;;;;23.30;11.50;;;;;;;2.14;100.00;101187.84;214297;1283;139505;-83
2024/03/19 00:09:59;;;;;;;26.70;11.70;;;;;;;2.13;100.00;101187.12;213735;1283;139771;-83
2024/03/19 00:14:59;;;;;;;22.90;11.10;;;;;;;2.11;100.00;101194.27;214388;1283;99391;-83
2024/03/19 00:20:00;;;;;;;28.50;12.80;;;;;;;2.10;100.00;101194.63;213776;1285;139796;-83
2024/03/19 00:25:00;;;;;;;26.00;11.60;;;;;;;2.07;100.00;101195.11;214350;1285;139106;-83
2024/03/19 00:30:08;;;;;;;25.60;12.60;;;;;;;2.01;100.00;101197.73;214036;1283;140360;-83
2024/03/19 00:35:09;;;;;;;24.90;12.10;;;;;;;1.95;100.00;101195.09;214024;1289;139802;-83
2024/03/19 00:40:12;;;;;;;24.10;11.90;;;;;;;1.92;100.00;101193.63;213898;1285;139887;-83
2024/03/19 00:45:13;;;;;;;28.70;12.60;;;;;;;1.91;100.00;101192.81;214590;1288;140331;-83
2024/03/19 00:50:14;;;;;;;25.40;11.90;;;;;;;1.90;100.00;101193.76;214769;1285;139728;-82
2024/03/19 00:55:14;;;;;;;30.40;12.70;;;;;;;1.90;100.00;101198.60;214710;1284;139832;-82
2024/03/19 01:00:15;;;;;;;25.50;12.30;;;;;;;1.87;100.00;101197.83;214383;1288;140648;-83
2024/03/19 01:05:15;;;;;;;24.80;12.70;;;;;;;1.84;100.00;101199.74;214727;1285;140965;-82
2024/03/19 01:10:16;;;;;;;29.80;12.90;;;;;;;1.80;100.00;101197.27;214300;1287;139879;-83
2024/03/19 01:15:16;;;;;;;24.70;12.20;;;;;;;1.78;100.00;101198.01;214984;1288;139170;-83
2024/03/19 01:20:17;;;;;;;25.50;12.20;;;;;;;1.75;100.00;101197.64;214155;1284;140497;-83
2024/03/19 01:25:18;;;;;;;27.50;12.20;;;;;;;1.73;100.00;101201.31;214418;1283;140049;-83
2024/03/19 01:30:19;;;;;;;33.10;14.90;;;;;;;1.70;100.00;101197.84;213988;1285;140452;-83
2024/03/19 01:35:20;;;;;;;28.00;12.90;;;;;;;1.68;100.00;101199.73;214345;1286;139299;-83
2024/03/19 01:40:20;;;;;;;32.50;14.40;;;;;;;1.66;100.00;101197.98;213817;1286;139869;-82
2024/03/19 01:45:22;;;;;;;30.20;13.40;;;;;;;1.67;100.00;101198.83;214344;1285;139119;-83
2024/03/19 01:50:23;;;;;;;28.30;13.50;;;;;;;1.67;100.00;101196.59;214146;1282;139696;-82
2024/03/19 01:55:24;;;;;;;27.20;14.10;;;;;;;1.64;100.00;101198.59;214142;1285;139475;-83
2024/03/19 02:00:25;;;;;;;28.50;14.60;;;;;;;1.61;100.00;101197.67;213912;1287;144387;-82
2024/03/19 02:05:26;;;;;;;29.70;14.40;;;;;;;1.57;100.00;101199.65;214366;1283;139553;-82
2024/03/19 02:10:26;;;;;;;32.80;14.60;;;;;;;1.52;100.00;101203.77;213997;1282;140293;-82
2024/03/19 02:15:27;;;;;;;29.00;14.00;;;;;;;1.49;100.00;101207.86;214567;1284;139721;-82
2024/03/19 02:20:27;;;;;;;27.50;12.70;;;;;;;1.45;100.00;101205.28;213616;1283;139763;-83
2024/03/19 02:25:28;;;;;;;25.80;13.50;;;;;;;1.38;100.00;101209.88;214328;1285;138860;-83
2024/03/19 02:30:29;;;;;;;28.30;12.90;;;;;;;1.28;100.00;101212.69;214229;1288;140460;-83
2024/03/19 02:35:30;;;;;;;27.60;13.30;;;;;;;1.18;100.00;101210.95;214423;1284;139101;-82
2024/03/19 02:40:30;;;;;;;28.80;13.40;;;;;;;1.10;100.00;101208.05;213655;1288;140182;-82
2024/03/19 02:45:31;;;;;;;28.00;14.00;;;;;;;1.02;100.00;101213.43;214448;1283;139524;-83
2024/03/19 02:50:31;;;;;;;26.90;13.10;;;;;;;0.93;100.00;101219.27;214079;1288;139658;-83
2024/03/19 02:55:32;;;;;;;27.30;13.30;;;;;;;0.85;100.00;101224.48;214493;1283;139395;-83
2024/03/19 03:00:35;;;;;;;32.10;12.70;;;;;;;0.78;100.00;101225.65;214035;1284;140088;-83
2024/03/19 03:05:36;;;;;;;23.60;11.70;;;;;;;0.72;100.00;101227.64;214485;1283;139560;-83
2024/03/19 03:10:37;;;;;;;25.50;11.50;;;;;;;0.65;100.00;101232.39;214483;1283;139665;-83
2024/03/19 03:15:38;;;;;;;19.90;10.70;;;;;;;0.58;100.00;101237.20;214446;1288;139110;-83
2024/03/19 03:20:38;;;;;;;19.60;10.20;;;;;;;0.51;100.00;101242.17;214058;1284;139001;-83
2024/03/19 03:25:39;;;;;;;21.00;9.80;;;;;;;0.44;100.00;101243.19;214343;1283;138947;-83
2024/03/19 03:30:41;;;;;;;19.20;9.50;;;;;;;0.35;100.00;101247.03;213991;1282;140192;-83
2024/03/19 03:35:42;;;;;;;22.50;10.40;;;;;;;0.26;100.00;101247.95;214649;1286;139012;-83
2024/03/19 03:40:43;;;;;;;21.40;9.10;;;;;;;0.13;100.00;101251.79;213950;1283;140034;-83
2024/03/19 03:45:44;;;;;;;23.20;9.90;;;;;;;0.02;100.00;101251.81;214230;1285;139146;-83
2024/03/19 03:50:45;;;;;;;24.10;10.00;;;;;;;-0.06;100.00;101258.08;214292;1282;139492;-83
2024/03/19 03:55:45;;;;;;;19.90;9.40;;;;;;;-0.15;100.00;101265.80;214232;1284;139410;-83
2024/03/19 04:00:46;;;;;;;23.50;9.50;;;;;;;-0.23;100.00;101269.38;213754;1287;140172;-84
2024/03/19 04:05:50;;;;;;;20.50;9.60;;;;;;;-0.31;100.00;101275.09;214313;1285;139687;-83
2024/03/19 04:10:51;;;;;;;24.70;10.70;;;;;;;-0.36;100.00;101278.75;214127;1286;140963;-84
2024/03/19 04:15:52;;;;;;;25.10;11.80;;;;;;;-0.41;100.00;101279.71;214303;1285;139389;-84
2024/03/19 04:20:53;;;;;;;22.20;10.00;;;;;;;-0.44;100.00;101285.64;213588;1288;141072;-84
2024/03/19 04:25:53;;;;;;;20.10;9.20;;;;;;;-0.48;100.00;101285.73;214089;1286;139260;-84
2024/03/19 04:30:54;;;;;;;20.20;9.50;;;;;;;-0.51;100.00;101288.73;213909;1285;140219;-84
2024/03/19 04:35:54;;;;;;;20.80;9.90;;;;;;;-0.52;100.00;101290.84;214801;1283;138145;-84
2024/03/19 04:40:55;;;;;;;17.80;9.40;;;;;;;-0.53;100.00;101292.16;213917;1285;140275;-84
2024/03/19 04:45:56;;;;;;;20.20;8.50;;;;;;;-0.55;100.00;101297.80;214873;1288;139610;-83
2024/03/19 04:50:56;;;;;;;20.90;9.00;;;;;;;-0.58;100.00;101300.20;218816;1283;140206;-84
2024/03/19 04:55:57;;;;;;;21.10;9.10;;;;;;;-0.60;100.00;101303.45;219548;1284;139020;-84
2024/03/19 05:00:57;;;;;;;19.60;9.10;;;;;;;-0.61;100.00;101307.36;219112;1282;140087;-84
2024/03/19 05:05:57;;;;;;;17.60;8.30;;;;;;;-0.63;100.00;101303.70;219564;1283;139243;-84
2024/03/19 05:10:58;;;;;;;19.10;8.90;;;;;;;-0.64;100.00;101303.38;219101;1283;140502;-84
2024/03/19 05:15:59;;;;;;;21.80;9.10;;;;;;;-0.68;100.00;101310.70;218349;1282;139324;-82
2024/03/19 05:20:59;;;;;;;617.20;194.80;;;;;;;-0.70;100.00;101315.04;213882;1285;140221;-83
2024/03/19 05:26:01;;;;;;;694.20;231.60;;;;;;;-0.72;100.00;101318.80;214263;1285;140064;-83
2024/03/19 05:31:02;;;;;;;391.00;110.10;;;;;;;-0.75;100.00;101325.24;213850;1284;140436;-84
2024/03/19 05:36:02;;;;;;;197.90;60.00;;;;;;;-0.78;100.00;101329.64;215587;1285;139939;-85
2024/03/19 05:41:03;;;;;;;188.60;50.80;;;;;;;-0.81;100.00;101330.19;214103;1283;140418;-83
2024/03/19 05:46:04;;;;;;;194.50;50.70;;;;;;;-0.84;100.00;101336.80;214314;1283;139782;-83
2024/03/19 05:51:09;;;;;;;125.20;36.00;;;;;;;-0.85;100.00;101341.19;213871;1284;139850;-82
2024/03/19 05:56:10;;;;;;;47.60;17.60;;;;;;;-0.87;100.00;101346.13;214565;1285;111852;-82
2024/03/19 06:01:11;;;;;;;117.10;25.70;;;;;;;-0.85;100.00;101344.42;213798;1285;139960;-82
2024/03/19 06:06:11;;;;;;;307.80;65.00;;;;;;;-0.81;100.00;101349.65;214410;1284;139499;-83
2024/03/19 06:11:12;;;;;;;164.20;41.50;;;;;;;-0.77;100.00;101349.67;214093;1287;140072;-84
2024/03/19 06:16:13;;;;;;;88.40;24.50;;;;;;;-0.58;100.00;101348.10;214586;1285;139618;-83
2024/03/19 06:21:13;;;;;;;64.20;17.60;;;;;;;-0.39;100.00;101348.11;213954;1286;210623;-83
2024/03/19 06:26:14;;;;;;;53.60;14.60;;;;;;;-0.22;100.00;101342.56;214284;1285;104747;-85
2024/03/19 06:31:15;;;;;;;33.50;13.00;;;;;;;-0.03;100.00;101345.64;213849;1288;139867;-85
2024/03/19 06:36:16;;;;;;;48.30;17.50;;;;;;;0.19;100.00;101343.48;214837;1284;139417;-86
2024/03/19 06:41:16;;;;;;;27.90;11.60;;;;;;;0.38;100.00;101348.16;215252;1285;139449;-85
2024/03/19 06:46:17;;;;;;;33.30;12.50;;;;;;;0.57;100.00;101344.58;214673;1284;139588;-84
2024/03/19 06:51:20;;;;;;;33.60;13.30;;;;;;;0.74;100.00;101348.55;214389;1285;139912;-85
2024/03/19 06:56:21;;;;;;;40.80;15.70;;;;;;;0.92;100.00;101355.48;214226;1285;141489;-85
2024/03/19 07:01:22;;;;;;;31.80;12.90;;;;;;;1.05;100.00;101359.58;215227;1286;140206;-84
2024/03/19 07:06:22;;;;;;;31.10;13.10;;;;;;;1.20;100.00;101361.73;215061;1285;140838;-84
2024/03/19 07:11:23;;;;;;;36.60;15.20;;;;;;;1.37;100.00;101361.95;219190;1284;139629;-86
2024/03/19 07:16:25;;;;;;;45.50;16.60;;;;;;;1.52;100.00;101362.97;214370;1282;140991;-85
2024/03/19 07:21:26;;;;;;;100.50;28.90;;;;;;;1.74;100.00;101369.04;214460;1288;139187;-86
2024/03/19 07:26:26;;;;;;;91.00;27.70;;;;;;;1.91;100.00;101371.84;214246;1283;140588;-86
2024/03/19 07:31:27;;;;;;;32.10;15.30;;;;;;;2.09;100.00;101373.88;214577;1285;139485;-85
2024/03/19 07:36:27;;;;;;;28.90;14.30;;;;;;;2.25;100.00;101380.95;213883;1285;139836;-85
2024/03/19 07:41:28;;;;;;;31.00;14.20;;;;;;;2.27;100.00;101382.95;215755;1285;138555;-84
2024/03/19 07:46:28;;;;;;;32.40;14.90;;;;;;;2.34;100.00;101385.60;213943;1286;140447;-85
2024/03/19 07:51:29;;;;;;;30.50;14.70;;;;;;;2.45;100.00;101386.27;214054;1288;139522;-84
2024/03/19 07:56:30;;;;;;;37.90;17.50;;;;;;;2.55;100.00;101394.34;214052;1288;140084;-84
2024/03/19 08:01:31;;;;;;;41.10;19.50;;;;;;;2.70;100.00;101399.16;214277;1285;138871;-83
2024/03/19 08:06:31;;;;;;;39.90;18.30;;;;;;;2.86;100.00;101400.21;213738;1285;140130;-83
2024/03/19 08:11:31;;;;;;;45.40;19.90;;;;;;;3.05;100.00;101403.56;214290;1288;139748;-83
2024/03/19 08:16:32;;;;;;;39.60;19.70;;;;;;;3.22;100.00;101402.44;213879;1282;139852;-84
2024/03/19 08:21:33;;;;;;;43.50;21.90;;;;;;;3.30;100.00;101407.98;214397;1285;139616;-83
2024/03/19 08:26:35;;;;;;;44.60;22.00;;;;;;;3.42;100.00;101408.70;214102;1285;140810;-84
2024/03/19 08:31:36;;;;;;;58.60;25.00;;;;;;;3.54;100.00;101408.81;214690;1286;138973;-83
2024/03/19 08:36:36;;;;;;;39.00;20.20;;;;;;;3.67;100.00;101414.24;214084;1285;139926;-84
2024/03/19 08:41:37;;;;;;;34.20;17.10;;;;;;;3.82;100.00;101414.85;215475;1285;137966;-84
2024/03/19 08:46:37;;;;;;;37.20;17.80;;;;;;;4.02;100.00;101413.33;213912;1285;141030;-84
2024/03/19 08:51:38;;;;;;;30.30;16.10;;;;;;;4.40;100.00;101413.78;214166;1288;139029;-83
2024/03/19 08:56:39;;;;;;;27.20;15.10;;;;;;;4.61;100.00;101418.69;214151;1284;141200;-83
2024/03/19 09:01:40;;;;;;;21.80;11.90;;;;;;;4.67;100.00;101415.57;214572;1285;138835;-84
2024/03/19 09:06:42;;;;;;;23.80;13.70;;;;;;;4.95;100.00;101417.31;214881;1285;140822;-82
2024/03/19 09:11:42;;;;;;;29.50;16.30;;;;;;;5.30;100.00;101420.60;215531;1285;139568;-83
2024/03/19 09:16:43;;;;;;;25.10;14.20;;;;;;;5.49;100.00;101422.75;214724;1283;140095;-84
2024/03/19 09:21:44;;;;;;;22.80;12.70;;;;;;;5.69;100.00;101428.22;214503;1286;139185;-85
2024/03/19 09:26:44;;;;;;;81.60;31.10;;;;;;;6.08;100.00;101427.00;213830;1288;140292;-84
2024/03/19 09:31:44;;;;;;;29.50;17.20;;;;;;;6.57;100.00;101425.49;214151;1286;139200;-84
2024/03/19 09:36:46;;;;;;;37.90;21.80;;;;;;;7.18;99.85;101429.78;213784;1285;139929;-83
2024/03/19 09:41:57;;;;;;;35.40;20.40;;;;;;;7.63;99.81;101434.93;214500;1285;138855;-84
2024/03/19 09:47:00;;;;;;;28.10;16.60;;;;;;;8.47;100.00;101431.92;214478;1287;139115;-86
2024/03/19 09:52:03;;;;;;;26.20;15.40;;;;;;;9.16;99.22;101425.13;214251;1285;139019;-85
2024/03/19 09:57:16;;;;;;;27.30;15.90;;;;;;;9.66;97.02;101422.86;213568;1285;368379;-85
2024/03/19 10:02:20;;;;;;;23.80;14.40;;;;;;;10.06;95.18;101429.92;214063;1283;99317;-84
2024/03/19 10:07:21;;;;;;;29.50;17.20;;;;;;;10.57;90.93;101424.22;213669;1283;139880;-85
2024/03/19 10:12:22;;;;;;;33.20;16.30;;;;;;;10.90;89.72;101421.79;214125;1285;139277;-86
2024/03/19 10:17:22;;;;;;;26.70;14.90;;;;;;;11.36;86.67;101418.89;213838;1285;140649;-83
2024/03/19 10:22:26;;;;;;;24.50;15.20;;;;;;;11.76;83.14;101423.09;213914;1285;139234;-85
2024/03/19 10:27:26;;;;;;;24.20;15.80;;;;;;;11.91;81.30;101421.67;213469;1288;140619;-85
2024/03/19 10:32:28;;;;;;;22.40;14.50;;;;;;;11.74;78.99;101414.61;214215;1288;112891;-83
2024/03/19 10:37:29;;;;;;;27.10;16.60;;;;;;;12.21;79.44;101415.13;213601;1288;140797;-86
2024/03/19 10:42:33;;;;;;;25.10;16.20;;;;;;;12.69;78.35;101412.98;214033;1284;139006;-84
2024/03/19 10:47:34;;;;;;;22.80;15.00;;;;;;;12.87;75.24;101411.25;214585;1287;140509;-84
2024/03/19 10:52:38;;;;;;;26.20;14.30;;;;;;;12.83;73.97;101406.21;214037;1285;138834;-83
2024/03/19 10:57:40;;;;;;;26.00;14.10;;;;;;;12.64;69.38;101408.06;213479;1288;140327;-84
2024/03/19 11:02:47;;;;;;;18.50;12.80;;;;;;;12.54;71.60;101404.89;214024;1288;111688;-86
2024/03/19 11:07:49;;;;;;;24.10;13.30;;;;;;;12.85;71.06;101398.98;213497;1288;139363;-84
2024/03/19 11:12:55;;;;;;;18.70;11.70;;;;;;;13.11;70.95;101392.19;214134;1288;138435;-84
2024/03/19 11:17:56;;;;;;;;;;;;;;;12.91;67.50;101390.42;213621;1288;139751;-85
2024/03/19 11:22:57;;;;;;;13.30;9.00;;;;;;;12.59;67.05;101385.89;214107;1287;125056;-84
2024/03/19 11:27:57;;;;;;;16.50;9.50;;;;;;;12.83;66.32;101382.60;213820;1288;139512;-82
2024/03/19 11:32:58;;;;;;;16.80;10.20;;;;;;;12.80;64.53;101376.25;214366;1288;100656;-83
2024/03/19 11:37:59;;;;;;;18.50;9.20;;;;;;;12.85;66.38;101372.30;213790;1285;139103;-83
2024/03/19 11:43:00;;;;;;;15.70;10.40;;;;;;;12.66;61.55;101375.67;213952;1289;138733;-82
2024/03/19 11:48:01;;;;;;;19.10;10.80;;;;;;;12.07;63.43;101379.05;215047;1287;139110;-83
2024/03/19 11:53:01;;;;;;;41.50;17.80;;;;;;;11.82;63.74;101375.23;214368;1283;138599;-84
2024/03/19 11:58:02;;;;;;;17.20;10.00;;;;;;;11.43;63.44;101366.92;213812;1288;139550;-84
2024/03/19 12:03:04;;;;;;;16.00;7.80;;;;;;;11.40;64.33;101362.29;213958;1288;99432;-83
2024/03/19 12:08:04;;;;;;;15.40;9.00;;;;;;;11.51;62.66;101360.59;213726;1289;139276;-84
2024/03/19 12:13:08;;;;;;;15.00;9.50;;;;;;;11.33;60.30;101361.27;214247;1288;138227;-84
2024/03/19 12:18:09;;;;;;;15.20;7.90;;;;;;;11.05;61.99;101361.88;213854;1283;139517;-85
2024/03/19 12:23:11;;;;;;;16.90;9.30;;;;;;;10.82;61.74;101351.94;214031;1286;138349;-84
2024/03/19 12:28:21;;;;;;;115.10;15.50;;;;;;;10.62;60.56;101353.02;213741;1288;138964;-86
2024/03/19 12:33:37;;;;;;;20.00;10.10;;;;;;;10.56;63.86;101350.02;214279;1285;138759;-84
2024/03/19 12:38:38;;;;;;;20.20;9.10;;;;;;;10.60;63.89;101342.04;213876;1287;140269;-85
2024/03/19 12:43:39;;;;;;;17.40;9.70;;;;;;;10.41;63.03;101341.04;214281;1288;139232;-84
2024/03/19 12:48:39;;;;;;;24.50;11.40;;;;;;;10.16;62.61;101336.60;214367;1287;141154;-84
2024/03/19 12:53:40;;;;;;;75.60;22.50;;;;;;;9.99;63.10;101328.11;214720;1286;138617;-85
2024/03/19 12:58:40;;;;;;;21.60;11.30;;;;;;;9.90;64.52;101321.95;213506;1286;139139;-84
2024/03/19 13:03:41;;;;;;;19.90;9.70;;;;;;;9.71;63.95;101319.36;214273;1288;138501;-84
2024/03/19 13:08:41;;;;;;;16.70;9.70;;;;;;;9.63;64.38;101314.65;213855;1288;140105;-84
2024/03/19 13:13:42;;;;;;;23.10;10.90;;;;;;;9.38;63.89;101307.95;214413;1288;138543;-84
2024/03/19 13:18:42;;;;;;;17.90;9.40;;;;;;;9.38;64.96;101309.35;213852;1286;138368;-84
2024/03/19 13:23:47;;;;;;;21.10;10.70;;;;;;;9.46;65.17;101303.08;214254;1286;137969;-84
2024/03/19 13:28:47;;;;;;;14.90;9.10;;;;;;;9.52;65.26;101300.66;213776;1292;139003;-84
2024/03/19 13:33:48;;;;;;;18.30;9.20;;;;;;;9.63;65.89;101296.44;214248;1286;137989;-84
2024/03/19 13:38:51;;;;;;;18.10;9.80;;;;;;;9.61;63.71;101293.48;213750;1285;139944;-84
2024/03/19 13:43:51;;;;;;;16.00;9.30;;;;;;;9.59;66.48;101286.67;214260;1288;137922;-84
2024/03/19 13:48:52;;;;;;;16.10;9.20;;;;;;;9.71;64.73;101284.33;213790;1287;140533;-84
2024/03/19 13:53:52;;;;;;;16.60;8.80;;;;;;;9.68;64.38;101285.12;215457;1289;137073;-83
2024/03/19 13:58:53;;;;;;;19.80;10.10;;;;;;;9.70;64.26;101287.30;213881;1285;139819;-84
2024/03/19 14:03:55;;;;;;;17.50;9.80;;;;;;;9.62;64.16;101288.24;214268;1288;138971;-83
2024/03/19 14:08:56;;;;;;;18.60;10.10;;;;;;;9.59;63.81;101285.78;213961;1286;138989;-84
2024/03/19 14:13:56;;;;;;;17.70;9.60;;;;;;;9.53;64.65;101284.05;214475;1288;138772;-82
2024/03/19 14:18:57;;;;;;;15.70;9.00;;;;;;;9.46;64.45;101284.27;214130;1286;138780;-84
2024/03/19 14:23:57;;;;;;;20.40;11.10;;;;;;;9.42;64.88;101288.27;214306;1289;138167;-84
2024/03/19 14:28:58;;;;;;;17.00;9.40;;;;;;;9.45;64.09;101285.77;213710;1288;139742;-83
2024/03/19 14:33:59;;;;;;;16.40;8.60;;;;;;;9.33;64.59;101280.00;214259;1289;138983;-83
2024/03/19 14:38:59;;;;;;;16.20;9.20;;;;;;;9.41;65.72;101277.72;214998;1283;139127;-84
2024/03/19 14:44:00;;;;;;;18.40;10.20;;;;;;;9.43;64.58;101275.91;214720;1289;138045;-85
2024/03/19 14:49:00;;;;;;;16.80;9.90;;;;;;;9.40;65.27;101274.48;213917;1288;139244;-84
2024/03/19 14:54:02;;;;;;;17.30;9.70;;;;;;;9.39;64.88;101271.23;215363;1289;140534;-82
2024/03/19 14:59:06;;;;;;;22.20;9.30;;;;;;;9.39;65.15;101265.73;214356;1289;140609;-84
2024/03/19 15:04:06;;;;;;;18.20;9.90;;;;;;;9.29;64.88;101270.15;215275;1283;138079;-84
2024/03/19 15:09:09;;;;;;;16.50;9.60;;;;;;;9.19;64.65;101268.99;213796;1288;139376;-84
2024/03/19 15:14:10;;;;;;;19.50;9.60;;;;;;;9.00;64.27;101261.51;214221;1288;139243;-82
2024/03/19 15:19:10;;;;;;;18.70;9.80;;;;;;;8.93;64.97;101262.48;213746;1285;139758;-83
2024/03/19 15:24:11;;;;;;;20.90;11.10;;;;;;;8.80;64.84;101261.14;214208;1288;138162;-84
2024/03/19 15:29:12;;;;;;;26.50;13.50;;;;;;;8.64;65.38;101255.73;213726;1285;138928;-82
2024/03/19 15:34:13;;;;;;;22.00;11.50;;;;;;;8.52;66.34;101254.89;214444;1283;138327;-84
2024/03/19 15:39:13;;;;;;;18.00;9.50;;;;;;;8.39;66.82;101257.30;213831;1285;139155;-83
2024/03/19 15:44:16;;;;;;;19.90;10.70;;;;;;;8.26;66.31;101254.39;214330;1286;137787;-84
2024/03/19 15:49:16;;;;;;;18.80;10.00;;;;;;;8.20;67.18;101253.27;214066;1285;140360;-83
2024/03/19 15:54:17;;;;;;;17.50;9.80;;;;;;;8.13;67.33;101255.98;215061;1286;138270;-83
2024/03/19 15:59:17;;;;;;;16.90;10.00;;;;;;;8.06;67.75;101254.31;214791;1299;139993;-83
2024/03/19 16:04:18;;;;;;;18.60;9.70;;;;;;;8.03;69.49;101258.86;214349;1285;138246;-82
2024/03/19 16:09:19;;;;;;;19.60;9.90;;;;;;;8.00;69.03;101260.40;213954;1285;140201;-83
2024/03/19 16:14:20;;;;;;;21.80;11.40;;;;;;;7.91;70.96;101265.02;214506;1282;100069;-83
2024/03/19 16:19:20;;;;;;;20.60;9.60;;;;;;;7.83;70.10;101270.91;213648;1283;139578;-83
2024/03/19 16:24:21;;;;;;;17.30;9.90;;;;;;;7.72;69.51;101274.58;214217;1286;138423;-83
2024/03/19 16:29:21;;;;;;;24.40;11.10;;;;;;;7.63;70.65;101271.14;213899;1287;139025;-83
2024/03/19 16:34:22;;;;;;;21.40;12.20;;;;;;;7.51;70.18;101271.77;214214;1288;140149;-83
2024/03/19 16:39:23;;;;;;;21.60;12.20;;;;;;;7.35;70.78;101279.97;213707;1283;139103;-83
2024/03/19 16:44:24;;;;;;;22.30;11.40;;;;;;;7.21;71.60;101280.28;214195;1285;105217;-82
2024/03/19 16:49:25;;;;;;;24.90;12.40;;;;;;;7.12;73.65;101281.40;213887;1285;139111;-83
2024/03/19 16:54:26;;;;;;;22.60;11.50;;;;;;;6.99;74.45;101281.20;214397;1286;138377;-83
2024/03/19 16:59:27;;;;;;;25.80;11.80;;;;;;;6.78;76.11;101282.37;214220;1285;139325;-83
2024/03/19 17:04:27;;;;;;;29.40;15.40;;;;;;;6.60;77.09;101287.06;214233;1287;138172;-83
2024/03/19 17:09:28;;;;;;;23.50;13.90;;;;;;;6.41;77.86;101285.98;213753;1282;139424;-83
2024/03/19 17:14:29;;;;;;;79.30;29.80;;;;;;;6.29;78.62;101285.94;214359;1285;100613;-83
2024/03/19 17:19:29;;;;;;;52.30;22.80;;;;;;;6.14;79.80;101289.06;213489;1288;139225;-83
2024/03/19 17:24:30;;;;;;;73.70;27.50;;;;;;;6.02;81.76;101286.23;214246;1285;138226;-83
2024/03/19 17:29:30;;;;;;;67.10;26.00;;;;;;;5.92;82.97;101284.52;213793;1283;139760;-84
2024/03/19 17:34:31;;;;;;;50.90;21.20;;;;;;;5.81;83.43;101289.19;214327;1285;139163;-83
2024/03/19 17:39:31;;;;;;;43.40;19.70;;;;;;;5.67;84.33;101295.55;213842;1283;140127;-85
2024/03/19 17:44:32;;;;;;;54.30;22.70;;;;;;;5.49;85.03;101302.63;214484;1285;99324;-84
2024/03/19 17:49:33;;;;;;;67.20;27.00;;;;;;;5.32;86.01;101304.33;213769;1288;140771;-85
2024/03/19 17:54:33;;;;;;;82.70;32.80;;;;;;;5.14;87.00;101307.56;214364;1285;139388;-85
2024/03/19 17:59:34;;;;;;;76.70;31.20;;;;;;;4.98;87.69;101306.59;214117;1283;140227;-84
2024/03/19 18:04:35;;;;;;;106.20;40.90;;;;;;;4.82;88.49;101306.45;214260;1288;139244;-85
2024/03/19 18:09:35;;;;;;;172.10;60.50;;;;;;;4.69;89.14;101307.13;213800;1283;140799;-85
2024/03/19 18:14:39;;;;;;;177.30;60.70;;;;;;;4.55;89.84;101305.41;214372;1288;108347;-85
2024/03/19 18:19:40;;;;;;;141.40;50.80;;;;;;;4.42;90.25;101307.05;213658;1286;139189;-84
2024/03/19 18:24:41;;;;;;;71.80;31.70;;;;;;;4.32;90.83;101311.12;214216;1284;139713;-85
2024/03/19 18:29:44;;;;;;;89.40;37.70;;;;;;;4.21;91.42;101318.50;213723;1285;139544;-84
2024/03/19 18:34:44;;;;;;;68.40;30.70;;;;;;;4.08;92.15;101318.67;214059;1285;139442;-85
2024/03/19 18:39:46;;;;;;;55.90;27.60;;;;;;;3.95;92.73;101320.89;213747;1285;140294;-86
2024/03/19 18:44:46;;;;;;;58.70;25.80;;;;;;;3.84;92.88;101319.02;214348;1287;109145;-85
2024/03/19 18:49:47;;;;;;;56.60;26.40;;;;;;;3.72;93.10;101326.23;213489;1288;141168;-85
2024/03/19 18:54:47;;;;;;;52.00;24.60;;;;;;;3.61;93.79;101326.83;214178;1285;138973;-85
2024/03/19 18:59:49;;;;;;;51.60;24.50;;;;;;;3.51;94.42;101330.40;213950;1285;139363;-84
2024/03/19 19:04:50;;;;;;;73.00;30.50;;;;;;;3.42;94.68;101329.04;214621;1285;138855;-84
2024/03/19 19:09:51;;;;;;;85.80;36.60;;;;;;;3.31;95.55;101332.50;213656;1288;140438;-83
2024/03/19 19:14:52;;;;;;;97.50;39.10;;;;;;;3.18;95.34;101337.92;214505;1284;99768;-84
2024/03/19 19:19:53;;;;;;;72.70;33.10;;;;;;;3.07;96.36;101341.91;213847;1282;138768;-84
2024/03/19 19:24:53;;;;;;;80.90;33.70;;;;;;;2.95;96.98;101338.52;214485;1287;138911;-85
2024/03/19 19:29:54;;;;;;;89.30;37.20;;;;;;;2.83;97.56;101334.98;213958;1283;139775;-85
2024/03/19 19:34:55;;;;;;;91.40;37.10;;;;;;;2.74;98.04;101330.92;214427;1283;139052;-84
2024/03/19 19:39:55;;;;;;;80.70;34.00;;;;;;;2.64;98.19;101325.09;213885;1284;139430;-85
2024/03/19 19:44:56;;;;;;;60.20;28.30;;;;;;;2.57;98.68;101325.88;214464;1283;99322;-85
2024/03/19 19:49:59;;;;;;;57.00;27.40;;;;;;;2.49;99.12;101323.55;213735;1283;139433;-83
2024/03/19 19:55:00;;;;;;;65.00;31.90;;;;;;;2.40;99.53;101323.63;214381;1283;138780;-84
2024/03/19 20:00:03;;;;;;;57.80;28.40;;;;;;;2.29;99.50;101332.23;214043;1286;139811;-82
2024/03/19 20:05:05;;;;;;;62.60;29.00;;;;;;;2.19;99.86;101333.96;214523;1285;139238;-84
2024/03/19 20:10:06;;;;;;;64.10;31.20;;;;;;;2.08;99.89;101341.31;213873;1284;140852;-83
2024/03/19 20:15:07;;;;;;;122.10;50.00;;;;;;;1.99;99.96;101342.84;214338;1288;108198;-84
2024/03/19 20:20:15;;;;;;;108.10;46.40;;;;;;;1.89;100.00;101339.32;214269;1282;140029;-84
2024/03/19 20:25:15;;;;;;;182.10;64.60;;;;;;;1.80;100.00;101338.49;214678;1283;139008;-84
2024/03/19 20:30:18;;;;;;;166.80;58.40;;;;;;;1.74;100.00;101340.21;214141;1284;140017;-83
2024/03/19 20:35:19;;;;;;;132.10;50.10;;;;;;;1.66;100.00;101338.08;214120;1285;139381;-84
2024/03/19 20:40:19;;;;;;;164.70;54.50;;;;;;;1.59;100.00;101332.31;214190;1285;139697;-83
2024/03/19 20:45:20;;;;;;;178.30;60.10;;;;;;;1.51;100.00;101328.83;214460;1286;99340;-82
2024/03/19 20:50:21;;;;;;;162.90;53.70;;;;;;;1.44;100.00;101328.55;213895;1283;140227;-83
2024/03/19 20:55:21;;;;;;;161.50;53.80;;;;;;;1.37;100.00;101326.42;214298;1283;139344;-82
2024/03/19 21:00:22;;;;;;;132.90;49.20;;;;;;;1.31;100.00;101330.96;213847;1283;140208;-83
2024/03/19 21:05:22;;;;;;;165.80;56.00;;;;;;;1.24;100.00;101330.31;214831;1285;139701;-84
2024/03/19 21:10:23;;;;;;;134.50;46.10;;;;;;;1.18;100.00;101330.41;213783;1287;139377;-83
2024/03/19 21:15:23;;;;;;;178.30;62.90;;;;;;;1.09;100.00;101332.14;214255;1285;140017;-82
2024/03/19 21:20:24;;;;;;;370.90;121.10;;;;;;;1.04;100.00;101330.16;215199;1282;139876;-82
2024/03/19 21:25:24;;;;;;;361.10;118.70;;;;;;;0.98;100.00;101334.80;216310;1282;140360;-82
2024/03/19 21:30:25;;;;;;;387.50;117.30;;;;;;;0.92;100.00;101334.18;215630;1284;140389;-83
2024/03/19 21:35:25;;;;;;;296.10;92.80;;;;;;;0.88;100.00;101330.21;216659;1287;139864;-83
2024/03/19 21:40:26;;;;;;;265.50;85.10;;;;;;;0.85;100.00;101331.14;216271;1282;139926;-83
2024/03/19 21:45:26;;;;;;;260.40;81.10;;;;;;;0.80;100.00;101331.89;217067;1284;140273;-82
2024/03/19 21:50:27;;;;;;;230.20;70.50;;;;;;;0.74;100.00;101331.64;216241;1284;139952;-83
2024/03/19 21:55:27;;;;;;;467.30;128.80;;;;;;;0.71;100.00;101322.76;215620;1285;263795;-83
2024/03/19 22:00:29;;;;;;;485.60;140.70;;;;;;;0.67;100.00;101322.68;214808;1282;140154;-83
2024/03/19 22:05:30;;;;;;;426.20;123.50;;;;;;;0.65;100.00;101320.00;215653;1284;139832;-83
2024/03/19 22:10:31;;;;;;;348.30;96.90;;;;;;;0.62;100.00;101319.98;214707;1283;140050;-84
2024/03/19 22:15:32;;;;;;;302.50;90.30;;;;;;;0.59;100.00;101316.60;214770;1285;139214;-83
2024/03/19 22:20:32;;;;;;;325.20;93.30;;;;;;;0.56;100.00;101315.67;214385;1284;141012;-83
2024/03/19 22:25:32;;;;;;;279.40;82.90;;;;;;;0.54;100.00;101310.05;214907;1283;139676;-83